Time;durP1;ratioP1;P1;durP2;ratioP2;P2;SDS_P1;SDS_P2;PMS_P1;PMS_P2;Temp;Humidity;BMP_temperature;BMP_pressure;BME280_temperature;BME280_humidity;BME280_pressure;Samples;Min_cycle;Max_cycle;Signal;HPM_P1;HPM_P2
2022/09/15 00:01:37;;;;;;;5.28;2.40;;;19.30;30.30;;;;;;5067114;28;34126;-76
2022/09/15 00:04:04;;;;;;;3.63;2.80;;;19.30;30.40;;;;;;5084969;28;34173;-76
2022/09/15 00:06:30;;;;;;;4.90;2.58;;;19.40;30.90;;;;;;5084950;28;34492;-76
2022/09/15 00:08:58;;;;;;;3.67;2.78;;;19.40;30.50;;;;;;5066782;28;34326;-77
2022/09/15 00:11:29;;;;;;;5.20;2.80;;;19.40;30.30;;;;;;5067346;28;34573;-76
2022/09/15 00:13:57;;;;;;;3.63;3.00;;;19.40;30.30;;;;;;5085025;28;34242;-76
2022/09/15 00:16:25;;;;;;;6.00;3.20;;;19.40;30.30;;;;;;5063493;28;36790;-76
2022/09/15 00:18:51;;;;;;;4.55;2.60;;;19.40;30.00;;;;;;5064565;28;34180;-76
2022/09/15 00:21:20;;;;;;;3.70;2.70;;;19.40;30.20;;;;;;5066470;28;34227;-76
2022/09/15 00:23:47;;;;;;;4.03;2.90;;;19.40;30.60;;;;;;5049396;28;34074;-76
2022/09/15 00:26:16;;;;;;;4.18;3.03;;;19.40;30.20;;;;;;5066632;28;35494;-76
2022/09/15 00:28:43;;;;;;;4.10;2.90;;;19.40;30.70;;;;;;5085037;28;34168;-76
2022/09/15 00:31:12;;;;;;;4.35;2.63;;;19.40;29.70;;;;;;5085170;28;34325;-76
2022/09/15 00:33:38;;;;;;;3.58;3.00;;;19.40;30.10;;;;;;5084492;28;34129;-76
2022/09/15 00:36:07;;;;;;;3.25;2.95;;;19.40;30.00;;;;;;5064273;28;35989;-76
2022/09/15 00:38:37;;;;;;;7.00;2.65;;;19.40;30.30;;;;;;5066456;28;34401;-76
2022/09/15 00:41:04;;;;;;;8.20;3.30;;;19.40;30.50;;;;;;5050599;28;34551;-76
2022/09/15 00:44:01;;;;;;;2.85;2.63;;;19.40;30.60;;;;;;5084673;28;34360;-76
2022/09/15 00:46:34;;;;;;;4.03;3.17;;;19.40;30.70;;;;;;5065949;28;35818;-77
2022/09/15 00:49:13;;;;;;;8.32;3.00;;;19.40;30.60;;;;;;5064044;28;34125;-76
2022/09/15 00:51:50;;;;;;;4.45;2.92;;;19.40;30.50;;;;;;5066706;28;34392;-76
2022/09/15 00:54:24;;;;;;;5.63;2.72;;;19.40;30.60;;;;;;5084446;28;34121;-77
2022/09/15 00:56:54;;;;;;;3.55;2.92;;;19.40;30.60;;;;;;5066331;28;35124;-77
2022/09/15 00:59:23;;;;;;;3.63;2.83;;;19.40;31.10;;;;;;5084622;28;34265;-78
2022/09/15 01:01:55;;;;;;;3.10;2.80;;;19.40;30.50;;;;;;5066723;28;34265;-78
2022/09/15 01:04:21;;;;;;;3.53;2.70;;;19.40;30.20;;;;;;5065669;28;34561;-78
2022/09/15 01:06:54;;;;;;;3.28;2.42;;;19.40;30.10;;;;;;5085266;28;34301;-77
2022/09/15 01:09:32;;;;;;;4.70;1.70;;;19.30;30.60;;;;;;5087145;28;34396;-78
2022/09/15 01:11:58;;;;;;;2.17;1.50;;;19.30;30.80;;;;;;5086362;28;34136;-77
2022/09/15 01:14:24;;;;;;;3.25;1.30;;;19.20;30.80;;;;;;5062499;28;34545;-77
2022/09/15 01:17:02;;;;;;;1.83;1.40;;;19.20;30.90;;;;;;5030785;28;34997;-77
2022/09/15 01:20:03;;;;;;;2.83;1.50;;;19.20;30.40;;;;;;5015237;28;34112;-77
2022/09/15 01:23:02;;;;;;;4.78;2.05;;;19.10;30.90;;;;;;5062932;28;34094;-76
2022/09/15 01:25:53;;;;;;;3.28;1.92;;;19.10;31.10;;;;;;5066005;28;34160;-77
2022/09/15 01:28:49;;;;;;;2.75;1.85;;;19.10;31.40;;;;;;5065904;28;36337;-77
2022/09/15 01:31:28;;;;;;;3.53;2.17;;;19.10;30.90;;;;;;5065777;28;34070;-77
2022/09/15 01:34:09;;;;;;;2.10;1.90;;;19.10;30.90;;;;;;5029969;28;34041;-76
2022/09/15 01:36:49;;;;;;;3.42;1.60;;;19.00;31.20;;;;;;5046439;28;34623;-76
2022/09/15 01:39:22;;;;;;;3.00;1.90;;;19.00;30.70;;;;;;5045589;28;35794;-77
2022/09/15 01:41:52;;;;;;;3.58;1.90;;;19.00;30.80;;;;;;5083333;28;34158;-77
2022/09/15 01:44:25;;;;;;;2.60;1.70;;;19.00;30.70;;;;;;5063188;28;34333;-77
2022/09/15 01:46:58;;;;;;;1.25;1.00;;;18.90;30.50;;;;;;5065679;28;34431;-77
2022/09/15 01:49:29;;;;;;;0.93;0.80;;;18.90;30.10;;;;;;5049127;28;36838;-76
2022/09/15 01:51:55;;;;;;;0.95;0.50;;;18.90;30.60;;;;;;5065830;28;34193;-75
2022/09/15 01:54:27;;;;;;;0.57;0.57;;;18.80;30.40;;;;;;5064217;28;34537;-76
2022/09/15 01:56:53;;;;;;;1.10;0.85;;;18.80;29.70;;;;;;5066844;28;34521;-79
2022/09/15 01:59:19;;;;;;;1.90;1.10;;;18.70;29.90;;;;;;5049295;28;34253;-75
2022/09/15 02:01:50;;;;;;;1.98;1.17;;;18.60;30.10;;;;;;5066184;28;34122;-77
2022/09/15 02:04:26;;;;;;;2.40;1.85;;;18.60;30.00;;;;;;5065764;28;34283;-77
2022/09/15 02:07:06;;;;;;;3.25;1.85;;;18.50;29.60;;;;;;5054195;28;35527;-77
2022/09/15 02:09:37;;;;;;;5.22;1.80;;;18.40;29.30;;;;;;5063429;28;36262;-77
2022/09/15 02:12:13;;;;;;;2.75;2.10;;;18.20;29.60;;;;;;5079073;28;34133;-77
2022/09/15 02:14:54;;;;;;;2.50;1.83;;;18.10;29.20;;;;;;5045700;28;34117;-76
2022/09/15 02:17:22;;;;;;;3.40;2.10;;;18.00;29.20;;;;;;5087909;28;34165;-75
2022/09/15 02:19:54;;;;;;;6.88;2.05;;;18.00;29.70;;;;;;5045549;28;36567;-75
2022/09/15 02:22:27;;;;;;;3.78;2.40;;;17.90;29.50;;;;;;5064608;28;34215;-75
2022/09/15 02:25:01;;;;;;;4.78;2.30;;;17.90;29.20;;;;;;5083296;28;34077;-75
2022/09/15 02:27:31;;;;;;;3.22;2.45;;;17.80;29.40;;;;;;5064811;28;34346;-75
2022/09/15 02:30:04;;;;;;;3.40;2.70;;;17.80;29.90;;;;;;5048574;28;35822;-75
2022/09/15 02:32:33;;;;;;;5.88;2.90;;;17.70;29.90;;;;;;5051741;28;35493;-75
2022/09/15 02:35:05;;;;;;;4.28;3.10;;;17.70;30.20;;;;;;5082754;28;34320;-75
2022/09/15 02:37:32;;;;;;;4.97;2.80;;;17.70;29.80;;;;;;5064066;28;34270;-74
2022/09/15 02:39:58;;;;;;;6.15;3.20;;;17.60;30.40;;;;;;5048353;28;35913;-74
2022/09/15 02:42:28;;;;;;;5.60;3.83;;;17.60;30.10;;;;;;5066982;28;34232;-75
2022/09/15 02:44:54;;;;;;;5.22;3.42;;;17.60;29.20;;;;;;5086912;28;34091;-75
2022/09/15 02:47:20;;;;;;;8.25;3.58;;;17.60;29.10;;;;;;5064500;28;34114;-75
2022/09/15 02:49:46;;;;;;;5.78;3.47;;;17.50;29.50;;;;;;5058553;28;36264;-74
2022/09/15 02:52:12;;;;;;;3.65;3.13;;;17.40;28.00;;;;;;5033202;28;34173;-74
2022/09/15 02:54:38;;;;;;;5.25;3.80;;;17.40;28.70;;;;;;5067805;28;34294;-74
2022/09/15 02:57:05;;;;;;;5.43;3.42;;;17.30;29.00;;;;;;5086725;28;34329;-74
2022/09/15 03:02:13;;;;;;;5.25;3.55;;;17.30;29.10;;;;;;5070048;28;34148;-74
2022/09/15 03:04:39;;;;;;;7.30;3.58;;;17.30;29.10;;;;;;5086308;28;34325;-74
2022/09/15 03:07:05;;;;;;;5.35;3.50;;;17.30;29.20;;;;;;5047657;28;34129;-75
2022/09/15 03:09:31;;;;;;;8.55;3.60;;;17.30;29.80;;;;;;5014383;28;35901;-74
2022/09/15 03:11:57;;;;;;;6.10;4.10;;;17.30;29.10;;;;;;5047948;28;33991;-74
2022/09/15 03:14:23;;;;;;;7.03;4.00;;;17.30;28.90;;;;;;5060201;28;35518;-74
2022/09/15 03:16:49;;;;;;;6.85;3.65;;;17.30;29.20;;;;;;5068810;28;34355;-75
2022/09/15 03:19:14;;;;;;;5.30;3.50;;;17.30;28.30;;;;;;5068109;28;34798;-75
2022/09/15 03:21:40;;;;;;;5.40;3.97;;;17.20;29.40;;;;;;5068249;28;34567;-75
2022/09/15 03:24:06;;;;;;;8.15;3.58;;;17.20;28.80;;;;;;5067743;28;34294;-74
2022/09/15 03:26:32;;;;;;;8.35;4.05;;;17.20;28.80;;;;;;5034834;28;34360;-75
2022/09/15 03:28:58;;;;;;;5.45;3.85;;;17.20;29.20;;;;;;5051041;28;36370;-74
2022/09/15 03:31:24;;;;;;;6.90;4.30;;;17.20;28.90;;;;;;5068233;28;34205;-74
2022/09/15 03:33:53;;;;;;;8.15;4.70;;;17.20;29.20;;;;;;5061848;28;34330;-74
2022/09/15 03:36:19;;;;;;;9.90;5.03;;;17.10;29.10;;;;;;5047440;28;34145;-74
2022/09/15 03:38:45;;;;;;;7.40;4.40;;;17.10;28.80;;;;;;5053243;28;36489;-75
2022/09/15 03:41:12;;;;;;;10.40;5.18;;;17.10;29.00;;;;;;5051141;28;34360;-75
2022/09/15 03:43:38;;;;;;;8.52;5.18;;;17.10;29.60;;;;;;5067104;28;34201;-74
2022/09/15 03:46:07;;;;;;;13.27;5.47;;;17.00;29.40;;;;;;5085592;28;34013;-75
2022/09/15 03:48:35;;;;;;;10.50;5.90;;;17.00;29.80;;;;;;5082365;28;35261;-74
2022/09/15 03:51:02;;;;;;;9.18;6.20;;;17.10;29.70;;;;;;5047937;28;34165;-74
2022/09/15 03:53:32;;;;;;;11.35;6.53;;;17.00;29.10;;;;;;5057848;28;34422;-74
2022/09/15 03:56:21;;;;;;;11.05;6.05;;;17.00;28.70;;;;;;5075716;28;34196;-74
2022/09/15 03:58:47;;;;;;;10.05;5.88;;;17.00;29.20;;;;;;5066936;28;35645;-74
2022/09/15 04:01:13;;;;;;;13.70;6.57;;;16.90;29.30;;;;;;5050263;28;34203;-75
2022/09/15 04:03:39;;;;;;;11.13;6.65;;;16.90;29.20;;;;;;5085117;28;34286;-75
2022/09/15 04:06:06;;;;;;;11.20;6.70;;;16.90;28.60;;;;;;5067672;28;34053;-75
2022/09/15 04:08:31;;;;;;;9.63;6.03;;;16.80;29.90;;;;;;5066779;28;34183;-75
2022/09/15 04:10:59;;;;;;;10.82;6.28;;;16.80;28.70;;;;;;5067546;28;34198;-75
2022/09/15 04:13:25;;;;;;;11.73;6.72;;;16.80;28.90;;;;;;5067378;28;34133;-74
2022/09/15 04:16:00;;;;;;;10.38;6.15;;;16.80;28.90;;;;;;5067043;28;34671;-75
2022/09/15 04:18:27;;;;;;;12.65;6.75;;;16.80;29.30;;;;;;5049323;28;35609;-74
2022/09/15 04:20:57;;;;;;;11.63;6.75;;;16.80;28.50;;;;;;5080508;28;34148;-74
2022/09/15 04:23:23;;;;;;;13.48;7.28;;;16.80;29.00;;;;;;5080117;28;34195;-74
2022/09/15 04:26:06;;;;;;;12.05;7.25;;;16.80;28.70;;;;;;5031048;28;34289;-74
2022/09/15 04:28:35;;;;;;;18.75;7.88;;;16.80;28.70;;;;;;5046565;28;35793;-74
2022/09/15 04:31:11;;;;;;;12.85;7.25;;;16.80;29.20;;;;;;5047323;28;34153;-74
2022/09/15 04:33:38;;;;;;;12.38;6.85;;;16.70;28.70;;;;;;5046663;28;34301;-74
2022/09/15 04:36:07;;;;;;;14.00;7.15;;;16.70;28.60;;;;;;5055737;28;34377;-74
2022/09/15 04:38:34;;;;;;;13.25;7.95;;;16.70;28.50;;;;;;5066323;28;36165;-74
2022/09/15 04:41:00;;;;;;;13.90;7.90;;;16.70;28.70;;;;;;5067063;28;34181;-74
2022/09/15 04:43:27;;;;;;;14.48;7.68;;;16.70;28.70;;;;;;5084593;28;34488;-74
2022/09/15 04:45:54;;;;;;;15.55;8.45;;;16.70;28.50;;;;;;5061907;28;34653;-75
2022/09/15 04:48:21;;;;;;;20.25;8.98;;;16.70;28.70;;;;;;5046112;28;35729;-74
2022/09/15 04:50:47;;;;;;;16.23;8.77;;;16.70;28.70;;;;;;5080099;28;34307;-74
2022/09/15 04:53:13;;;;;;;15.05;8.35;;;16.60;29.20;;;;;;5063994;28;34092;-74
2022/09/15 04:55:39;;;;;;;14.52;8.20;;;16.70;29.30;;;;;;5035268;28;34299;-74
2022/09/15 04:58:06;;;;;;;15.52;9.63;;;16.60;28.90;;;;;;5064353;28;34449;-74
2022/09/15 05:00:36;;;;;;;16.52;8.63;;;16.60;29.20;;;;;;5046302;28;34148;-74
2022/09/15 05:03:02;;;;;;;15.75;8.73;;;16.70;28.80;;;;;;5066261;28;34285;-74
2022/09/15 05:05:28;;;;;;;16.13;9.27;;;16.60;29.40;;;;;;5083264;28;34571;-74
2022/09/15 05:07:53;;;;;;;15.38;8.57;;;16.60;28.60;;;;;;5048848;28;35558;-74
2022/09/15 05:10:20;;;;;;;17.02;8.77;;;16.70;29.30;;;;;;5049364;28;34054;-74
2022/09/15 05:12:46;;;;;;;15.82;9.15;;;16.60;28.60;;;;;;5066362;28;34809;-74
2022/09/15 05:15:12;;;;;;;19.25;9.90;;;16.60;29.00;;;;;;5060196;28;34260;-75
2022/09/15 05:17:38;;;;;;;20.25;9.82;;;16.60;29.10;;;;;;5064001;28;35606;-74
2022/09/15 05:20:04;;;;;;;14.82;8.43;;;16.60;28.90;;;;;;5049430;28;34411;-75
2022/09/15 05:22:31;;;;;;;17.63;8.40;;;16.50;28.50;;;;;;5066312;28;34245;-74
2022/09/15 05:24:57;;;;;;;18.75;10.05;;;16.50;29.10;;;;;;5063909;28;34232;-74
2022/09/15 05:27:23;;;;;;;17.67;8.48;;;16.40;28.90;;;;;;5045333;28;35679;-74
2022/09/15 05:29:49;;;;;;;17.02;8.35;;;16.40;28.90;;;;;;5046488;28;34045;-74
2022/09/15 05:32:15;;;;;;;16.42;8.50;;;16.30;29.50;;;;;;5046128;28;34302;-74
2022/09/15 05:34:41;;;;;;;16.38;8.82;;;16.30;29.40;;;;;;5045986;28;34545;-74
2022/09/15 05:37:09;;;;;;;17.88;8.73;;;16.20;29.00;;;;;;5053286;28;35579;-74
2022/09/15 05:39:34;;;;;;;14.93;8.80;;;16.10;29.20;;;;;;5066061;28;34413;-74
2022/09/15 05:42:00;;;;;;;16.23;8.88;;;16.10;29.30;;;;;;5084026;28;34054;-75
2022/09/15 05:44:26;;;;;;;14.25;9.00;;;16.10;29.60;;;;;;5083833;28;33986;-74
2022/09/15 05:46:52;;;;;;;15.77;8.90;;;16.10;29.20;;;;;;5030943;28;35805;-75
2022/09/15 05:49:18;;;;;;;16.42;8.52;;;16.10;29.00;;;;;;5028882;28;34082;-74
2022/09/15 05:51:44;;;;;;;18.65;9.10;;;16.10;29.10;;;;;;5029457;28;34196;-74
2022/09/15 05:54:10;;;;;;;16.00;8.98;;;16.10;28.60;;;;;;5081677;28;34353;-74
2022/09/15 05:56:36;;;;;;;16.00;9.23;;;16.10;28.70;;;;;;5065512;28;35490;-74
2022/09/15 05:59:02;;;;;;;18.08;9.63;;;16.10;29.10;;;;;;5045300;28;34243;-74
2022/09/15 06:01:29;;;;;;;15.43;9.40;;;16.10;28.40;;;;;;5045195;28;34192;-74
2022/09/15 06:03:56;;;;;;;16.45;8.50;;;16.10;28.20;;;;;;5036884;28;34139;-74
2022/09/15 06:06:24;;;;;;;17.60;8.00;;;16.10;28.40;;;;;;5082854;28;34066;-74
2022/09/15 06:08:54;;;;;;;15.45;8.65;;;16.10;28.60;;;;;;5083716;28;34065;-75
2022/09/15 06:11:23;;;;;;;19.85;8.70;;;16.10;28.70;;;;;;5065517;28;34281;-74
2022/09/15 06:13:49;;;;;;;14.85;8.55;;;16.10;28.50;;;;;;5035038;28;34407;-74
2022/09/15 06:16:18;;;;;;;15.50;8.68;;;16.20;28.60;;;;;;5061066;28;36475;-74
2022/09/15 06:18:44;;;;;;;15.23;9.50;;;16.20;28.10;;;;;;5068956;28;34365;-74
2022/09/15 06:21:13;;;;;;;19.23;9.13;;;16.20;28.80;;;;;;5069105;28;34115;-74
2022/09/15 06:23:39;;;;;;;14.60;8.00;;;16.20;28.60;;;;;;5068695;28;34121;-75
2022/09/15 06:26:10;;;;;;;15.95;7.88;;;16.20;28.60;;;;;;5086213;28;34132;-74
2022/09/15 06:28:40;;;;;;;14.38;8.27;;;16.20;28.50;;;;;;5051268;28;34085;-74
2022/09/15 06:31:11;;;;;;;16.88;8.75;;;16.20;28.60;;;;;;5086716;28;34371;-74
2022/09/15 06:33:44;;;;;;;17.88;9.23;;;16.30;28.80;;;;;;5052305;28;34342;-74
2022/09/15 06:36:14;;;;;;;16.33;9.48;;;16.30;27.90;;;;;;5069163;28;34331;-74
2022/09/15 06:38:41;;;;;;;17.33;8.93;;;16.30;28.10;;;;;;5055984;28;34243;-74
2022/09/15 06:41:08;;;;;;;15.15;8.52;;;16.30;28.60;;;;;;5050551;28;34343;-74
2022/09/15 06:43:34;;;;;;;20.45;9.88;;;16.40;28.30;;;;;;5048548;28;34649;-74
2022/09/15 06:46:07;;;;;;;14.73;9.07;;;16.40;27.90;;;;;;5047902;28;35790;-74
2022/09/15 06:48:35;;;;;;;18.00;9.30;;;16.50;27.50;;;;;;5032049;28;34169;-74
2022/09/15 06:51:08;;;;;;;20.42;10.75;;;16.50;28.20;;;;;;5078272;28;34069;-74
2022/09/15 06:53:36;;;;;;;19.17;10.40;;;16.60;27.60;;;;;;5067839;27;34377;-74
2022/09/15 06:56:10;;;;;;;19.02;10.15;;;16.70;27.50;;;;;;5092068;27;34825;-74
2022/09/15 06:58:38;;;;;;;20.60;10.98;;;16.70;27.20;;;;;;5107875;27;34382;-75
2022/09/15 07:01:10;;;;;;;19.45;11.20;;;16.80;27.10;;;;;;5088904;27;34280;-74
2022/09/15 07:03:38;;;;;;;21.52;11.18;;;17.00;27.20;;;;;;5108729;27;34123;-74
2022/09/15 07:06:05;;;;;;;21.42;12.00;;;17.00;26.90;;;;;;5107932;27;35919;-74
2022/09/15 07:08:31;;;;;;;18.25;10.90;;;17.10;26.80;;;;;;5109236;27;34240;-74
2022/09/15 07:10:57;;;;;;;21.30;10.75;;;17.10;26.80;;;;;;5127225;27;34130;-74
2022/09/15 07:13:24;;;;;;;21.50;11.77;;;17.20;26.40;;;;;;5108200;27;34172;-74
2022/09/15 07:15:55;;;;;;;16.73;10.27;;;17.30;26.40;;;;;;5108932;27;36285;-74
2022/09/15 07:18:22;;;;;;;17.15;10.60;;;17.30;25.80;;;;;;5092106;27;34250;-74
2022/09/15 07:20:48;;;;;;;16.83;10.98;;;17.40;25.90;;;;;;5126939;27;34393;-74
2022/09/15 07:23:15;;;;;;;19.23;11.32;;;17.40;25.70;;;;;;5108413;27;34281;-74
2022/09/15 07:25:42;;;;;;;20.60;11.13;;;17.50;25.90;;;;;;5091297;27;35553;-74
2022/09/15 07:28:16;;;;;;;16.15;9.88;;;17.50;24.80;;;;;;5108114;27;34005;-74
2022/09/15 07:30:44;;;;;;;20.77;11.20;;;17.60;25.50;;;;;;5091423;27;34173;-76
2022/09/15 07:33:14;;;;;;;21.33;11.00;;;17.50;25.40;;;;;;5091923;27;34383;-76
2022/09/15 07:35:42;;;;;;;18.95;11.35;;;17.60;25.10;;;;;;5108381;27;36832;-75
2022/09/15 07:38:08;;;;;;;20.45;11.23;;;17.60;25.50;;;;;;5108710;27;34351;-75
2022/09/15 07:40:34;;;;;;;21.75;12.20;;;17.70;25.30;;;;;;5108193;27;34325;-75
2022/09/15 07:43:00;;;;;;;17.80;10.20;;;17.70;25.70;;;;;;5091853;27;34539;-75
2022/09/15 07:45:26;;;;;;;23.15;10.88;;;17.80;25.20;;;;;;5091194;27;36407;-75
2022/09/15 07:47:52;;;;;;;18.48;10.35;;;17.80;25.30;;;;;;5091369;27;34326;-75
2022/09/15 07:50:17;;;;;;;15.82;10.38;;;17.90;26.10;;;;;;5126609;27;34211;-75
2022/09/15 07:52:43;;;;;;;19.38;10.75;;;17.90;26.00;;;;;;5108517;27;34125;-75
2022/09/15 07:55:09;;;;;;;17.80;11.13;;;18.00;25.60;;;;;;5107891;27;35658;-75
2022/09/15 07:57:35;;;;;;;20.02;11.15;;;18.10;25.60;;;;;;5091510;27;34115;-76
2022/09/15 08:00:02;;;;;;;17.25;11.05;;;18.10;25.60;;;;;;5108494;27;34172;-76
2022/09/15 08:02:28;;;;;;;20.33;10.80;;;18.10;24.90;;;;;;5108166;27;34432;-76
2022/09/15 08:04:55;;;;;;;18.83;10.65;;;18.20;25.30;;;;;;5126901;27;34326;-76
2022/09/15 08:07:21;;;;;;;17.58;10.85;;;18.30;25.20;;;;;;5105911;27;34379;-76
2022/09/15 08:09:47;;;;;;;18.27;10.27;;;18.30;26.10;;;;;;5089626;28;34354;-75
2022/09/15 08:12:13;;;;;;;19.55;10.95;;;18.30;25.00;;;;;;5104774;27;34340;-76
2022/09/15 08:14:38;;;;;;;17.13;9.77;;;18.30;24.30;;;;;;5125533;27;34627;-76
2022/09/15 08:17:04;;;;;;;17.23;9.65;;;18.30;24.40;;;;;;5108194;27;34327;-77
2022/09/15 08:19:33;;;;;;;16.92;9.38;;;18.40;24.10;;;;;;5090900;27;34377;-76
2022/09/15 08:22:21;;;;;;;16.27;9.20;;;18.50;24.10;;;;;;5091106;27;34153;-76
2022/09/15 08:25:02;;;;;;;13.63;8.05;;;18.70;23.70;;;;;;5107936;27;35852;-76
2022/09/15 08:27:29;;;;;;;13.98;7.18;;;18.90;23.30;;;;;;5108241;27;34242;-77
2022/09/15 08:29:55;;;;;;;13.88;7.03;;;19.10;24.00;;;;;;5098973;27;34124;-77
2022/09/15 08:32:22;;;;;;;9.23;6.43;;;19.20;23.50;;;;;;5120581;27;34380;-80
2022/09/15 08:34:48;;;;;;;11.27;6.75;;;19.30;22.40;;;;;;5123178;27;35832;-77
2022/09/15 08:37:15;;;;;;;10.32;6.53;;;19.20;22.80;;;;;;5136406;27;34349;-79
2022/09/15 08:39:41;;;;;;;11.20;6.80;;;19.10;23.00;;;;;;5107384;27;34259;-76
2022/09/15 08:42:15;;;;;;;10.32;6.18;;;19.00;22.70;;;;;;5107963;27;33997;-76
2022/09/15 08:44:54;;;;;;;9.98;6.78;;;18.90;22.20;;;;;;5107258;27;36066;-77
2022/09/15 08:47:29;;;;;;;13.48;7.10;;;19.00;22.90;;;;;;5109892;27;34139;-77
2022/09/15 08:50:17;;;;;;;9.48;6.57;;;19.10;22.50;;;;;;5108983;27;34122;-77
2022/09/15 08:52:58;;;;;;;10.63;6.32;;;19.30;22.20;;;;;;5091736;27;34432;-78
2022/09/15 08:55:47;;;;;;;9.25;6.00;;;19.50;21.80;;;;;;5091008;27;35961;-77
2022/09/15 08:58:18;;;;;;;9.23;5.55;;;19.80;19.80;;;;;;5116803;27;34142;-76
2022/09/15 09:00:50;;;;;;;10.40;5.78;;;20.00;20.70;;;;;;5098106;27;34287;-76
2022/09/15 09:03:51;;;;;;;7.68;5.47;;;20.00;20.90;;;;;;5082835;28;34139;-76
2022/09/15 09:06:37;;;;;;;6.03;4.95;;;20.00;19.40;;;;;;5118458;27;35909;-76
2022/09/15 09:09:20;;;;;;;11.43;5.63;;;20.00;19.80;;;;;;5102224;27;34426;-76
2022/09/15 09:12:14;;;;;;;9.13;5.07;;;20.00;20.50;;;;;;5100590;27;34378;-76
2022/09/15 09:14:58;;;;;;;10.45;5.75;;;19.90;19.40;;;;;;5092561;28;34117;-77
2022/09/15 09:17:55;;;;;;;10.57;6.65;;;19.80;20.10;;;;;;5116102;27;35263;-77
2022/09/15 09:20:38;;;;;;;9.07;6.18;;;19.70;19.60;;;;;;5106467;27;34437;-76
2022/09/15 09:23:13;;;;;;;7.50;5.70;;;19.60;19.90;;;;;;5123310;27;34130;-77
2022/09/15 09:25:41;;;;;;;6.40;5.20;;;19.70;21.90;;;;;;5124030;27;34218;-77
2022/09/15 09:28:33;;;;;;;6.35;4.47;;;19.90;22.10;;;;;;5120002;27;35305;-76
2022/09/15 09:31:06;;;;;;;9.30;4.85;;;20.20;20.60;;;;;;5091414;27;34136;-75
2022/09/15 09:33:49;;;;;;;8.27;4.38;;;20.50;21.00;;;;;;5075196;27;34206;-76
2022/09/15 09:36:15;;;;;;;6.85;4.28;;;20.80;18.90;;;;;;5126507;27;34440;-79
2022/09/15 09:38:44;;;;;;;5.55;3.78;;;21.00;20.10;;;;;;5093416;27;35674;-78
2022/09/15 09:41:14;;;;;;;6.50;3.30;;;21.10;19.20;;;;;;5086125;28;34431;-77
2022/09/15 09:43:43;;;;;;;4.97;3.33;;;21.40;18.50;;;;;;5088141;28;34223;-77
2022/09/15 09:46:13;;;;;;;9.13;3.65;;;21.50;18.80;;;;;;5086256;28;34140;-78
2022/09/15 09:48:58;;;;;;;5.30;3.92;;;21.50;17.40;;;;;;5087515;28;35757;-77
2022/09/15 09:51:36;;;;;;;7.97;4.07;;;21.40;18.10;;;;;;5108887;27;34131;-79
2022/09/15 09:54:06;;;;;;;5.20;3.92;;;21.30;16.80;;;;;;5092564;28;34026;-80
2022/09/15 09:56:32;;;;;;;7.10;4.57;;;21.10;17.40;;;;;;5091413;28;34391;-79
2022/09/15 09:58:58;;;;;;;7.35;4.15;;;20.90;18.60;;;;;;5088240;28;34393;-78
2022/09/15 10:01:25;;;;;;;5.38;4.13;;;20.60;18.20;;;;;;5087619;28;34344;-77
2022/09/15 10:04:11;;;;;;;3.95;3.47;;;20.60;18.90;;;;;;5129040;27;34278;-80
2022/09/15 10:06:39;;;;;;;7.95;3.50;;;20.50;16.50;;;;;;5107455;27;34089;-76
2022/09/15 10:09:17;;;;;;;5.13;3.25;;;20.50;18.80;;;;;;5109599;27;36299;-78
2022/09/15 10:11:47;;;;;;;3.55;2.60;;;20.70;17.30;;;;;;5107218;27;34269;-78
2022/09/15 10:14:35;;;;;;;3.95;2.58;;;21.00;18.10;;;;;;5092029;27;34164;-79
2022/09/15 10:17:14;;;;;;;3.33;2.38;;;21.10;17.10;;;;;;5112146;27;34136;-79
2022/09/15 10:19:57;;;;;;;3.80;2.60;;;21.10;17.00;;;;;;5108831;27;36597;-78
2022/09/15 10:22:32;;;;;;;4.68;2.38;;;21.50;17.30;;;;;;5107067;27;34110;-77
2022/09/15 10:25:00;;;;;;;4.50;2.50;;;21.90;13.80;;;;;;5104691;28;34349;-77
2022/09/15 10:27:32;;;;;;;2.45;2.10;;;22.20;17.30;;;;;;5110998;27;34174;-78
2022/09/15 10:30:17;;;;;;;4.63;1.98;;;22.20;16.30;;;;;;5116565;27;36061;-78
2022/09/15 10:32:43;;;;;;;3.55;2.05;;;22.10;12.70;;;;;;5121380;27;34085;-77
2022/09/15 10:35:17;;;;;;;2.85;2.28;;;21.90;17.00;;;;;;5109444;27;35669;-77
2022/09/15 10:38:14;;;;;;;4.35;1.90;;;21.70;16.00;;;;;;5109681;27;34459;-78
2022/09/15 10:41:00;;;;;;;5.43;2.20;;;21.60;15.90;;;;;;5132363;27;35698;-78
2022/09/15 10:43:51;;;;;;;3.55;2.25;;;21.40;13.60;;;;;;5130877;27;34209;-81
2022/09/15 10:46:34;;;;;;;3.95;2.28;;;21.40;14.70;;;;;;5130662;27;34160;-80
2022/09/15 10:49:23;;;;;;;2.80;2.47;;;21.70;14.90;;;;;;5151093;27;34266;-81
2022/09/15 10:52:10;;;;;;;2.13;1.92;;;21.90;14.60;;;;;;5127359;27;35599;-80
2022/09/15 10:54:59;;;;;;;2.42;2.13;;;22.30;14.80;;;;;;5110699;27;34135;-79
2022/09/15 10:57:55;;;;;;;3.42;2.30;;;22.50;12.10;;;;;;5111457;27;34127;-81
2022/09/15 11:00:24;;;;;;;4.30;2.05;;;22.50;13.10;;;;;;5128817;27;34296;-78
2022/09/15 11:03:18;;;;;;;3.03;2.15;;;22.50;15.40;;;;;;5113536;27;35112;-80
2022/09/15 11:06:08;;;;;;;2.40;2.10;;;22.30;13.50;;;;;;5117662;27;34147;-79
2022/09/15 11:08:57;;;;;;;3.38;1.80;;;22.30;11.70;;;;;;5135437;27;34108;-81
2022/09/15 11:11:43;;;;;;;2.38;2.08;;;22.50;12.50;;;;;;5118127;27;33912;-82
2022/09/15 11:14:36;;;;;;;2.67;1.70;;;22.70;8.90;;;;;;5115010;27;35677;-79
2022/09/15 11:17:25;;;;;;;2.28;1.58;;;23.10;9.50;;;;;;5102011;27;34308;-77
2022/09/15 11:20:11;;;;;;;3.22;1.80;;;23.10;5.90;;;;;;5110112;27;34290;-80
2022/09/15 11:22:44;;;;;;;6.97;1.98;;;23.00;7.00;;;;;;5134183;27;34437;-79
2022/09/15 11:25:16;;;;;;;2.38;1.88;;;23.20;11.50;;;;;;5099440;27;35529;-81
2022/09/15 11:27:48;;;;;;;2.92;1.77;;;23.30;11.10;;;;;;5116503;27;34435;-79
2022/09/15 11:30:18;;;;;;;2.00;1.60;;;23.40;12.90;;;;;;5130920;27;34004;-79
2022/09/15 11:33:03;;;;;;;2.03;1.83;;;23.40;12.00;;;;;;5112231;27;34459;-81
2022/09/15 11:35:54;;;;;;;2.47;2.00;;;23.30;10.40;;;;;;5112956;27;36534;-79
2022/09/15 11:38:33;;;;;;;7.65;2.10;;;23.20;9.40;;;;;;5095927;27;33565;-78
2022/09/15 11:41:29;;;;;;;2.30;1.75;;;23.20;10.10;;;;;;5106517;28;34076;-78
2022/09/15 11:44:21;;;;;;;3.97;1.80;;;23.10;5.80;;;;;;5091475;28;34246;-78
2022/09/15 11:47:13;;;;;;;1.70;1.60;;;23.10;8.80;;;;;;5105149;28;35725;-78
2022/09/15 11:49:59;;;;;;;1.95;1.83;;;23.10;8.30;;;;;;5113912;27;34006;-78
2022/09/15 11:52:54;;;;;;;2.42;1.95;;;23.20;8.70;;;;;;5109657;27;34296;-78
2022/09/15 11:55:37;;;;;;;2.95;1.85;;;23.20;10.00;;;;;;5129041;27;34300;-78
2022/09/15 11:58:17;;;;;;;2.13;1.40;;;23.30;6.70;;;;;;5094859;27;35959;-79
2022/09/15 12:00:54;;;;;;;2.55;1.60;;;23.20;8.90;;;;;;5111722;27;34198;-78
2022/09/15 12:03:31;;;;;;;9.30;1.80;;;23.30;10.40;;;;;;5091588;27;34192;-78
2022/09/15 12:06:06;;;;;;;2.97;1.50;;;23.30;10.30;;;;;;5108429;27;34437;-78
2022/09/15 12:08:38;;;;;;;4.05;1.80;;;23.30;10.90;;;;;;5108899;27;36363;-80
2022/09/15 12:11:12;;;;;;;1.80;1.50;;;23.20;9.80;;;;;;5129942;27;33974;-83
2022/09/15 12:13:40;;;;;;;2.72;1.60;;;23.10;11.10;;;;;;5110115;27;34391;-77
2022/09/15 12:16:07;;;;;;;6.10;1.60;;;23.10;10.70;;;;;;5109806;27;34076;-83
2022/09/15 12:18:47;;;;;;;4.38;1.60;;;23.00;11.00;;;;;;5128740;27;35023;-79
2022/09/15 12:21:38;;;;;;;2.90;1.60;;;23.10;9.20;;;;;;5108960;27;34282;-78
2022/09/15 12:24:26;;;;;;;3.40;1.52;;;23.10;7.80;;;;;;5128824;27;33996;-80
2022/09/15 12:26:53;;;;;;;2.15;1.45;;;23.20;5.70;;;;;;5094258;27;34121;-81
2022/09/15 12:29:36;;;;;;;3.60;1.90;;;23.30;11.30;;;;;;5109730;27;35942;-77
2022/09/15 12:32:19;;;;;;;4.88;1.60;;;23.40;8.50;;;;;;5096869;27;34117;-77
2022/09/15 12:35:20;;;;;;;4.10;1.63;;;23.40;7.50;;;;;;5085728;27;34068;-77
2022/09/15 12:37:51;;;;;;;1.40;1.20;;;23.30;5.90;;;;;;5095719;27;35105;-80
2022/09/15 12:40:37;;;;;;;3.38;1.52;;;23.30;10.30;;;;;;5109721;27;35714;-79
2022/09/15 12:43:17;;;;;;;1.50;1.40;;;23.30;7.20;;;;;;5123721;27;34362;-78
2022/09/15 12:45:54;;;;;;;3.20;1.35;;;23.30;7.00;;;;;;5090500;27;34123;-78
2022/09/15 12:48:24;;;;;;;1.30;1.17;;;23.40;6.30;;;;;;5108807;27;34520;-79
2022/09/15 12:50:57;;;;;;;2.45;1.10;;;23.40;9.00;;;;;;5084932;28;35737;-80
2022/09/15 12:53:27;;;;;;;2.47;1.30;;;23.40;6.00;;;;;;5089460;27;34339;-77
2022/09/15 12:55:58;;;;;;;1.60;1.50;;;23.30;9.60;;;;;;5110446;27;34025;-82
2022/09/15 12:58:41;;;;;;;2.22;1.48;;;23.30;8.70;;;;;;5127199;27;34143;-78
2022/09/15 13:01:31;;;;;;;1.50;1.40;;;23.20;5.40;;;;;;5090913;28;36309;-77
2022/09/15 13:04:37;;;;;;;4.50;1.50;;;23.20;5.10;;;;;;5095858;27;34314;-79
2022/09/15 13:07:21;;;;;;;1.73;1.50;;;23.20;7.10;;;;;;5087820;27;34081;-78
2022/09/15 13:10:17;;;;;;;1.48;1.27;;;23.20;6.30;;;;;;5147303;27;34614;-77
2022/09/15 13:12:53;;;;;;;3.10;1.50;;;23.40;6.60;;;;;;5128678;27;36091;-78
2022/09/15 13:15:22;;;;;;;3.83;1.42;;;23.40;8.10;;;;;;5131507;27;33999;-81